Time;durP1;ratioP1;P1;durP2;ratioP2;P2;SDS_P1;SDS_P2;PMS_P1;PMS_P2;Temp;Humidity;BMP_temperature;BMP_pressure;BME280_temperature;BME280_humidity;BME280_pressure;Samples;Min_cycle;Max_cycle;Signal;HPM_P1;HPM_P2
2021/12/27 00:00:19;;;;;;;;;;;;;;;4.22;46.15;99561.94;4263734;33;20097;-78
2021/12/27 00:02:47;;;;;;;;;;;;;;;4.02;47.71;99564.63;4269551;33;20359;-82
2021/12/27 00:05:14;;;;;;;;;;;;;;;4.05;47.36;99568.97;4263008;33;20357;-79
2021/12/27 00:07:43;;;;;;;;;;;;;;;4.10;46.86;99568.34;4262939;33;20036;-78
2021/12/27 00:10:10;;;;;;;;;;;;;;;4.07;46.73;99557.97;4263021;33;20008;-78
2021/12/27 00:12:38;;;;;;;;;;;;;;;4.02;47.20;99554.41;4269640;33;20638;-80
2021/12/27 00:15:05;;;;;;;;;;;;;;;4.13;46.89;99557.34;4263295;33;20053;-79
2021/12/27 00:17:32;;;;;;;;;;;;;;;3.61;48.06;99551.13;4267476;33;19985;-80
2021/12/27 00:19:59;;;;;;;;;;;;;;;3.86;46.90;99544.34;4254899;33;19993;-81
2021/12/27 00:22:25;;;;;;;;;;;;;;;4.04;46.04;99537.38;4267843;33;20001;-80
2021/12/27 00:24:52;;;;;;;;;;;;;;;4.01;46.55;99537.25;4258503;33;19997;-79
2021/12/27 00:27:19;;;;;;;;;;;;;;;4.10;46.06;99547.84;4266711;33;19992;-78
2021/12/27 00:29:46;;;;;;;;;;;;;;;3.88;46.56;99555.53;4264562;33;20016;-79
2021/12/27 00:32:13;;;;;;;;;;;;;;;4.20;45.71;99546.50;4277325;33;19992;-80
2021/12/27 00:34:39;;;;;;;;;;;;;;;4.37;44.46;99547.09;4277367;33;20001;-80
2021/12/27 00:37:07;;;;;;;;;;;;;;;4.11;44.91;99554.72;4277661;33;19988;-81
2021/12/27 00:39:34;;;;;;;;;;;;;;;3.93;46.76;99544.66;4272268;33;20032;-80
2021/12/27 00:42:01;;;;;;;;;;;;;;;3.75;47.89;99553.34;4264518;33;19989;-80
2021/12/27 00:44:27;;;;;;;;;;;;;;;3.77;47.69;99562.81;4266843;33;20292;-80
2021/12/27 00:46:55;;;;;;;;;;;;;;;3.96;47.23;99549.91;4270828;33;20004;-78
2021/12/27 00:49:21;;;;;;;;;;;;;;;4.06;46.88;99556.25;4272320;33;20076;-80
2021/12/27 00:51:48;;;;;;;;;;;;;;;3.68;48.21;99563.34;4264536;33;20016;-78
2021/12/27 00:54:15;;;;;;;;;;;;;;;3.46;48.92;99561.63;4272209;33;20871;-79
2021/12/27 00:56:45;;;;;;;;;;;;;;;3.60;48.27;99554.47;4264344;33;20001;-79
2021/12/27 00:59:12;;;;;;;;;;;;;;;3.50;48.83;99544.69;4264753;33;20850;-80
2021/12/27 01:01:39;;;;;;;;;;;;;;;3.94;47.64;99545.53;4264450;33;20105;-78
2021/12/27 01:04:06;;;;;;;;;;;;;;;3.46;48.39;99550.50;4264369;33;20547;-79
2021/12/27 01:06:33;;;;;;;;;;;;;;;3.77;47.83;99551.72;4245068;33;20041;-78
2021/12/27 01:09:00;;;;;;;;;;;;;;;3.62;48.41;99542.63;4264744;33;20022;-79
2021/12/27 01:11:39;;;;;;;;;;;;;;;3.76;48.35;99549.94;4267851;33;19990;-78
2021/12/27 01:14:16;;;;;;;;;;;;;;;3.58;48.26;99545.88;4266673;33;19992;-77
2021/12/27 01:16:44;;;;;;;;;;;;;;;3.83;46.54;99551.91;4274060;33;20036;-79
2021/12/27 01:19:11;;;;;;;;;;;;;;;3.88;45.91;99551.28;4270319;33;19998;-78
2021/12/27 01:21:38;;;;;;;;;;;;;;;3.91;45.72;99558.22;4260733;33;19981;-80
2021/12/27 01:24:05;;;;;;;;;;;;;;;4.05;45.79;99551.94;4264573;33;19981;-78
2021/12/27 01:26:32;;;;;;;35.95;25.00;;;;;;;3.82;46.75;99555.31;4252589;33;20302;-79
2021/12/27 01:29:02;;;;;;;35.60;25.37;;;;;;;3.17;48.25;99552.78;4268847;33;20170;-80
2021/12/27 01:31:29;;;;;;;35.20;24.98;;;;;;;2.92;49.40;99544.91;4251282;33;20371;-78
2021/12/27 01:33:56;;;;;;;35.78;24.60;;;;;;;2.85;49.43;99542.91;4252243;33;20678;-80
2021/12/27 01:36:23;;;;;;;36.97;24.95;;;;;;;2.42;50.82;99544.47;4268921;33;20286;-79
2021/12/27 01:38:50;;;;;;;35.67;24.92;;;;;;;2.43;50.96;99535.16;4262530;33;20290;-79
2021/12/27 01:41:17;;;;;;;36.15;25.35;;;;;;;2.50;50.76;99539.72;4268540;33;20288;-79
2021/12/27 01:43:45;;;;;;;31.13;24.47;;;;;;;2.58;50.42;99543.47;4263089;33;20310;-80
2021/12/27 01:46:18;;;;;;;33.83;24.53;;;;;;;2.98;48.72;99540.91;4263917;33;20206;-79
2021/12/27 01:48:54;;;;;;;31.98;23.27;;;;;;;2.87;50.24;99538.72;4259414;33;20173;-79
2021/12/27 01:51:22;;;;;;;32.35;24.65;;;;;;;3.00;49.10;99533.31;4262856;33;20201;-79
2021/12/27 01:53:51;;;;;;;35.17;25.00;;;;;;;2.77;50.07;99527.22;4263625;33;20713;-78
2021/12/27 01:56:20;;;;;;;34.60;24.73;;;;;;;2.50;50.97;99542.28;4271883;33;20216;-78
2021/12/27 01:58:52;;;;;;;33.80;25.17;;;;;;;2.95;49.16;99534.81;4275506;33;20713;-78
2021/12/27 02:01:21;;;;;;;31.85;24.60;;;;;;;3.09;48.52;99540.47;4250101;33;20197;-79
2021/12/27 02:03:50;;;;;;;33.17;23.87;;;;;;;3.09;48.27;99538.78;4260256;33;20915;-80
2021/12/27 02:06:17;;;;;;;32.92;24.20;;;;;;;3.17;47.98;99537.44;4272037;33;20354;-79
2021/12/27 02:08:44;;;;;;;30.25;22.87;;;;;;;3.31;47.08;99537.09;4262023;33;20174;-78
2021/12/27 02:11:13;;;;;;;33.33;24.10;;;;;;;3.17;47.84;99540.00;4248156;33;20291;-80
2021/12/27 02:13:45;;;;;;;28.83;22.55;;;;;;;3.50;46.37;99542.13;4236398;33;20295;-78
2021/12/27 02:16:15;;;;;;;30.23;22.85;;;;;;;3.31;46.49;99539.66;4263636;33;20164;-80
2021/12/27 02:18:44;;;;;;;33.13;23.55;;;;;;;3.32;47.57;99541.41;4259324;33;20296;-80
2021/12/27 02:21:11;;;;;;;32.38;23.42;;;;;;;2.72;49.60;99541.53;4247911;33;20307;-80
2021/12/27 02:23:40;;;;;;;32.22;23.58;;;;;;;2.49;50.82;99537.97;4263506;33;20333;-79
2021/12/27 02:26:09;;;;;;;32.70;23.90;;;;;;;2.64;50.14;99543.72;4252763;33;20286;-81
2021/12/27 02:28:37;;;;;;;31.73;23.20;;;;;;;2.78;49.54;99534.97;4264668;33;20201;-78
2021/12/27 02:31:04;;;;;;;33.97;23.55;;;;;;;2.44;50.57;99536.91;4256488;33;20297;-80
2021/12/27 02:33:31;;;;;;;33.85;24.25;;;;;;;2.49;50.33;99537.97;4276556;33;20293;-78
2021/12/27 02:35:59;;;;;;;32.80;25.20;;;;;;;2.62;49.62;99537.69;4265255;33;20326;-79
2021/12/27 02:38:31;;;;;;;34.75;25.20;;;;;;;3.05;48.65;99529.25;4271611;33;20360;-80
2021/12/27 02:40:59;;;;;;;31.77;23.85;;;;;;;2.88;48.90;99525.16;4274241;33;20352;-77
2021/12/27 02:43:27;;;;;;;31.08;23.30;;;;;;;2.69;49.27;99526.94;4276052;33;20368;-79
2021/12/27 02:45:57;;;;;;;32.03;23.17;;;;;;;2.51;51.16;99526.13;4284290;33;20281;-79
2021/12/27 02:48:29;;;;;;;29.33;22.73;;;;;;;2.67;49.39;99520.87;4278194;33;20201;-77
2021/12/27 02:50:57;;;;;;;31.50;23.55;;;;;;;2.60;49.70;99525.66;4277745;33;20252;-78
2021/12/27 02:53:24;;;;;;;28.83;21.50;;;;;;;2.84;50.28;99525.81;4282958;33;20715;-80
2021/12/27 02:55:54;;;;;;;29.83;22.00;;;;;;;2.84;49.76;99523.25;4249968;33;20304;-79
2021/12/27 02:58:22;;;;;;;26.92;20.80;;;;;;;2.63;50.32;99521.56;4275010;33;20275;-80
2021/12/27 03:00:58;;;;;;;27.58;20.75;;;;;;;2.86;49.49;99524.19;4276857;33;20463;-79
2021/12/27 03:03:25;;;;;;;26.42;18.83;;;;;;;2.96;49.89;99521.19;4275801;33;20181;-78
2021/12/27 03:05:53;;;;;;;25.42;18.42;;;;;;;3.18;48.67;99521.25;4276402;33;20312;-79
2021/12/27 03:08:21;;;;;;;25.33;19.80;;;;;;;2.96;48.41;99516.97;4276497;33;20341;-79
2021/12/27 03:10:53;;;;;;;23.70;18.15;;;;;;;2.71;50.19;99514.19;4282685;33;20220;-78
2021/12/27 03:13:29;;;;;;;25.73;18.98;;;;;;;2.70;49.87;99508.22;4277148;33;20469;-79
2021/12/27 03:15:58;;;;;;;26.23;18.90;;;;;;;3.03;48.93;99507.84;4282799;33;20168;-78
2021/12/27 03:18:26;;;;;;;24.90;19.25;;;;;;;2.75;49.92;99506.75;4277397;33;20298;-79
2021/12/27 03:20:54;;;;;;;33.70;22.87;;;;;;;2.85;50.00;99502.00;4282830;33;20291;-78
2021/12/27 03:23:22;;;;;;;28.80;22.00;;;;;;;3.19;48.28;99504.22;4277228;33;20296;-79
2021/12/27 03:25:49;;;;;;;30.50;21.42;;;;;;;3.11;48.12;99505.63;4275833;33;20173;-78
2021/12/27 03:28:17;;;;;;;32.22;22.45;;;;;;;3.40;47.26;99509.34;4276116;33;20225;-78
2021/12/27 03:30:44;;;;;;;34.33;23.62;;;;;;;3.15;47.94;99513.47;4276116;33;20842;-79
2021/12/27 03:33:12;;;;;;;31.42;23.67;;;;;;;3.07;48.38;99514.00;4275890;33;20204;-80
2021/12/27 03:35:41;;;;;;;28.02;20.73;;;;;;;3.15;48.33;99503.25;4281825;33;20221;-80
2021/12/27 03:38:10;;;;;;;24.58;18.00;;;;;;;3.14;48.00;99506.63;4277699;33;20196;-79
2021/12/27 03:40:39;;;;;;;24.67;17.93;;;;;;;3.20;48.00;99495.78;4275984;33;20177;-78
2021/12/27 03:43:06;;;;;;;22.60;17.37;;;;;;;3.16;47.99;99494.78;4276288;33;20184;-79
2021/12/27 03:45:36;;;;;;;24.43;17.33;;;;;;;3.25;48.59;99494.25;4275888;33;20215;-78
2021/12/27 03:48:05;;;;;;;24.35;17.70;;;;;;;3.06;48.46;99502.00;4277862;33;20179;-79
2021/12/27 03:50:32;;;;;;;23.00;17.12;;;;;;;3.07;49.08;99499.50;4284669;33;20182;-80
2021/12/27 03:53:00;;;;;;;22.67;17.00;;;;;;;2.70;49.51;99500.56;4265022;33;20383;-80
2021/12/27 03:55:27;;;;;;;20.12;16.33;;;;;;;2.79;49.87;99503.50;4263919;33;20231;-79
2021/12/27 03:58:05;;;;;;;24.40;17.52;;;;;;;2.92;49.44;99504.00;4276072;33;20228;-78
2021/12/27 04:01:21;;;;;;;24.08;17.92;;;;;;;2.91;49.53;99502.25;4275899;33;20320;-79
2021/12/27 04:03:21;;;;;;;22.80;17.20;;;;;;;2.85;49.89;99502.00;4268257;33;20188;-79
2021/12/27 04:06:06;;;;;;;25.50;18.37;;;;;;;2.90;49.23;99503.06;4275801;33;20184;-79
2021/12/27 04:08:52;;;;;;;24.37;17.65;;;;;;;3.19;48.17;99501.66;4275871;33;20209;-78
2021/12/27 04:11:37;;;;;;;27.86;18.64;;;;;;;2.80;49.18;99500.13;4277729;33;20232;-81
2021/12/27 04:14:25;;;;;;;24.96;18.32;;;;;;;2.79;50.12;99508.59;4277594;33;20263;-79
2021/12/27 04:16:53;;;;;;;24.90;18.70;;;;;;;3.09;49.62;99510.66;4277214;33;20203;-78
2021/12/27 04:19:22;;;;;;;24.15;19.35;;;;;;;2.91;50.02;99508.25;4277791;33;21073;-80
2021/12/27 04:21:49;;;;;;;25.45;18.70;;;;;;;2.46;51.33;99508.06;4277381;33;20171;-81
2021/12/27 04:24:16;;;;;;;25.95;18.37;;;;;;;2.68;50.52;99504.75;4280121;33;20300;-80
2021/12/27 04:26:44;;;;;;;27.15;19.52;;;;;;;2.82;49.44;99504.44;4281955;33;20279;-79
2021/12/27 04:29:13;;;;;;;28.23;20.17;;;;;;;2.72;50.71;99505.75;4277476;33;20252;-81
2021/12/27 04:31:40;;;;;;;28.55;21.05;;;;;;;2.62;50.88;99499.38;4277430;33;20292;-80
2021/12/27 04:34:07;;;;;;;26.07;19.40;;;;;;;2.72;50.76;99501.50;4276974;33;20311;-80
2021/12/27 04:36:34;;;;;;;28.90;20.85;;;;;;;2.68;50.12;99497.09;4267856;33;20292;-78
2021/12/27 04:39:01;;;;;;;33.88;21.75;;;;;;;3.11;49.55;99503.94;4277506;33;20734;-79
2021/12/27 04:41:28;;;;;;;34.28;22.83;;;;;;;2.95;50.12;99501.56;4265515;33;20287;-80
2021/12/27 04:43:55;;;;;;;37.40;25.23;;;;;;;2.83;50.57;99503.63;4265400;33;20307;-81
2021/12/27 04:46:23;;;;;;;36.40;24.15;;;;;;;2.87;51.03;99502.94;4277517;33;20285;-81
2021/12/27 04:48:52;;;;;;;34.05;22.75;;;;;;;2.77;51.41;99501.69;4283543;33;20601;-79
2021/12/27 04:51:20;;;;;;;28.10;20.40;;;;;;;2.90;50.26;99495.38;4268126;33;20348;-79
2021/12/27 04:53:49;;;;;;;29.30;20.93;;;;;;;2.81;50.09;99498.47;4265005;33;20704;-81
2021/12/27 04:56:16;;;;;;;32.00;22.17;;;;;;;2.88;50.71;99497.03;4258002;33;20202;-79
2021/12/27 04:58:46;;;;;;;33.00;22.75;;;;;;;2.77;51.48;99500.00;4283606;33;20366;-81
2021/12/27 05:01:13;;;;;;;29.67;20.95;;;;;;;2.92;50.54;99507.44;4281695;33;20324;-81
2021/12/27 05:03:41;;;;;;;31.37;21.30;;;;;;;2.73;50.59;99503.22;4265891;33;20600;-79
2021/12/27 05:06:09;;;;;;;24.70;18.30;;;;;;;3.10;50.44;99502.19;4270725;33;20300;-80
2021/12/27 05:08:36;;;;;;;26.10;19.40;;;;;;;2.71;51.32;99510.00;4283896;33;20752;-79
2021/12/27 05:11:03;;;;;;;25.08;18.45;;;;;;;2.51;51.94;99510.81;4278181;33;20311;-81
2021/12/27 05:13:32;;;;;;;24.05;18.15;;;;;;;2.96;50.45;99505.87;4277577;33;20360;-80
2021/12/27 05:15:59;;;;;;;25.88;18.55;;;;;;;2.92;50.49;99504.00;4280021;33;20164;-79
2021/12/27 05:18:27;;;;;;;24.48;18.62;;;;;;;3.01;50.27;99504.38;4281941;33;20205;-79
2021/12/27 05:20:54;;;;;;;23.12;17.45;;;;;;;2.97;50.04;99502.53;4279501;33;20344;-80
2021/12/27 05:23:20;;;;;;;23.70;17.35;;;;;;;2.92;50.37;99494.66;4282655;33;20301;-80
2021/12/27 05:25:48;;;;;;;23.75;17.30;;;;;;;2.78;51.17;99500.88;4277283;33;20598;-80
2021/12/27 05:28:15;;;;;;;23.55;17.85;;;;;;;2.87;50.56;99503.81;4281600;33;20244;-80
2021/12/27 05:30:43;;;;;;;23.45;18.02;;;;;;;2.93;50.33;99500.63;4288632;33;20304;-78
2021/12/27 05:33:10;;;;;;;24.45;17.70;;;;;;;3.15;49.89;99500.69;4283561;33;20161;-79
2021/12/27 05:35:37;;;;;;;24.65;17.98;;;;;;;3.16;50.33;99496.44;4276998;33;20292;-78
2021/12/27 05:38:04;;;;;;;25.35;17.65;;;;;;;2.88;52.12;99497.03;4276856;33;20428;-81
2021/12/27 05:40:31;;;;;;;22.70;17.55;;;;;;;3.14;51.36;99493.81;4276872;33;20297;-79
2021/12/27 05:42:58;;;;;;;23.90;18.02;;;;;;;2.98;51.01;99494.03;4276964;33;20353;-81
2021/12/27 05:45:25;;;;;;;24.67;19.33;;;;;;;2.84;51.87;99500.25;4278801;33;20301;-79
2021/12/27 05:47:53;;;;;;;27.50;19.62;;;;;;;3.10;50.92;99504.75;4279992;33;20348;-79
2021/12/27 05:50:20;;;;;;;28.48;20.35;;;;;;;3.29;50.10;99500.34;4271262;33;20284;-80
2021/12/27 05:52:51;;;;;;;22.42;17.73;;;;;;;3.32;49.90;99497.91;4280797;33;20173;-81
2021/12/27 05:55:19;;;;;;;22.80;17.10;;;;;;;3.22;50.38;99495.03;4289527;33;20191;-82
2021/12/27 05:57:46;;;;;;;23.90;18.20;;;;;;;3.31;50.16;99493.62;4291589;33;20172;-79
2021/12/27 06:00:14;;;;;;;27.83;20.73;;;;;;;3.21;50.31;99498.37;4287086;33;20217;-81
2021/12/27 06:02:43;;;;;;;30.75;21.90;;;;;;;3.18;50.18;99495.69;4284517;33;20992;-81
2021/12/27 06:05:11;;;;;;;32.87;23.00;;;;;;;2.90;51.12;99495.38;4286340;33;20190;-81
2021/12/27 06:07:39;;;;;;;29.48;20.73;;;;;;;3.21;50.41;99493.25;4286434;33;20219;-79
2021/12/27 06:10:06;;;;;;;28.90;22.67;;;;;;;3.26;50.24;99485.78;4283987;33;20165;-80
2021/12/27 06:12:34;;;;;;;34.53;24.58;;;;;;;3.28;50.18;99488.38;4279260;33;20308;-81
2021/12/27 06:15:01;;;;;;;35.75;27.30;;;;;;;3.51;49.70;99487.59;4281651;33;20221;-80
2021/12/27 06:17:30;;;;;;;37.40;28.60;;;;;;;3.48;49.78;99487.50;4277396;33;20372;-80
2021/12/27 06:19:58;;;;;;;32.30;22.52;;;;;;;3.56;49.71;99486.09;4284590;33;20339;-80
2021/12/27 06:22:25;;;;;;;29.20;21.33;;;;;;;3.56;49.23;99480.97;4276344;33;20240;-80
2021/12/27 06:24:52;;;;;;;27.42;21.10;;;;;;;3.39;48.66;99476.91;4278494;33;20173;-79
2021/12/27 06:27:19;;;;;;;28.17;20.50;;;;;;;3.85;48.01;99469.25;4283258;33;20316;-81
2021/12/27 06:29:46;;;;;;;27.35;21.25;;;;;;;3.97;48.00;99481.63;4276517;33;20153;-80
2021/12/27 06:32:14;;;;;;;29.30;21.05;;;;;;;3.87;48.82;99487.25;4275920;33;20385;-80
2021/12/27 06:34:42;;;;;;;28.33;21.07;;;;;;;3.65;49.80;99481.31;4284602;33;20180;-81
2021/12/27 06:37:08;;;;;;;32.15;23.58;;;;;;;3.46;50.55;99481.44;4276326;33;20172;-79
2021/12/27 06:39:36;;;;;;;31.45;22.70;;;;;;;3.49;50.25;99484.09;4276394;33;20179;-79
2021/12/27 06:42:05;;;;;;;27.62;19.83;;;;;;;3.36;49.89;99471.66;4282900;33;20482;-81
2021/12/27 06:44:33;;;;;;;24.85;18.30;;;;;;;3.44;49.55;99475.37;4267353;33;20272;-80
2021/12/27 06:47:00;;;;;;;25.35;17.50;;;;;;;3.55;49.21;99469.00;4276628;33;21105;-81
2021/12/27 06:49:28;;;;;;;25.00;19.20;;;;;;;3.68;48.89;99468.63;4268573;33;20154;-80
2021/12/27 06:51:54;;;;;;;26.17;21.00;;;;;;;3.49;50.15;99463.62;4276818;33;20177;-81
2021/12/27 06:54:24;;;;;;;30.60;21.95;;;;;;;3.26;50.18;99471.31;4280656;33;20156;-80
2021/12/27 06:56:51;;;;;;;31.87;22.50;;;;;;;3.58;49.43;99474.22;4244158;33;20677;-80
2021/12/27 06:59:18;;;;;;;27.20;20.48;;;;;;;3.91;48.06;99473.72;4282515;33;20672;-81
2021/12/27 07:01:45;;;;;;;24.45;18.42;;;;;;;3.65;48.98;99471.06;4278275;33;20630;-81
2021/12/27 07:04:12;;;;;;;26.85;19.00;;;;;;;3.84;47.79;99476.88;4266744;33;20165;-80
2021/12/27 07:06:39;;;;;;;24.98;17.98;;;;;;;3.35;49.65;99470.78;4282468;33;20177;-81
2021/12/27 07:09:06;;;;;;;24.08;18.55;;;;;;;3.18;50.56;99471.81;4280006;33;21037;-81
2021/12/27 07:11:33;;;;;;;25.23;18.67;;;;;;;3.35;50.26;99469.91;4281150;33;20184;-80
2021/12/27 07:14:00;;;;;;;22.83;17.90;;;;;;;3.48;49.85;99472.12;4276279;33;20173;-79
2021/12/27 07:16:27;;;;;;;23.33;17.37;;;;;;;3.53;49.67;99468.06;4276372;33;20228;-80
2021/12/27 07:18:54;;;;;;;24.85;16.98;;;;;;;3.18;49.86;99467.56;4276362;33;20179;-81
2021/12/27 07:21:21;;;;;;;23.40;17.15;;;;;;;3.35;49.68;99475.00;4280751;33;20863;-82
2021/12/27 07:23:52;;;;;;;112.15;76.72;;;;;;;3.79;48.17;99465.59;4279108;33;20169;-83
2021/12/27 07:26:19;;;;;;;60.97;41.70;;;;;;;3.73;47.57;99469.69;4284395;33;20356;-80
2021/12/27 07:28:46;;;;;;;66.22;38.80;;;;;;;3.88;47.74;99477.03;4291468;33;20283;-79
2021/12/27 07:31:13;;;;;;;92.22;49.45;;;;;;;3.81;47.59;99476.78;4290845;33;20362;-80
2021/12/27 07:33:40;;;;;;;59.40;35.22;;;;;;;3.88;47.64;99483.84;4264268;33;20313;-79
2021/12/27 07:36:11;;;;;;;55.35;35.55;;;;;;;3.96;48.25;99483.34;4278659;33;20298;-77
2021/12/27 07:38:39;;;;;;;45.65;29.00;;;;;;;3.76;48.68;99478.28;4296696;33;20368;-80
2021/12/27 07:41:06;;;;;;;39.80;28.40;;;;;;;4.00;48.60;99483.44;4283405;33;20431;-81
2021/12/27 07:43:33;;;;;;;34.88;23.42;;;;;;;3.68;49.24;99483.13;4271631;33;20334;-84
2021/12/27 07:46:00;;;;;;;32.65;23.38;;;;;;;3.61;49.34;99479.47;4274046;33;20161;-80
2021/12/27 07:48:27;;;;;;;29.10;19.52;;;;;;;3.57;49.30;99480.13;4278779;33;20165;-81
2021/12/27 07:50:54;;;;;;;34.38;22.42;;;;;;;3.78;47.93;99474.09;4277341;33;20177;-84
2021/12/27 07:53:21;;;;;;;28.55;20.08;;;;;;;3.71;48.04;99483.25;4289396;33;20614;-81
2021/12/27 07:55:49;;;;;;;27.90;19.53;;;;;;;4.16;47.50;99481.47;4289406;33;20303;-80
2021/12/27 07:58:16;;;;;;;29.80;20.48;;;;;;;4.37;46.75;99470.22;4287767;33;20828;-81
2021/12/27 08:00:43;;;;;;;28.77;18.73;;;;;;;4.11;47.86;99467.63;4286784;33;20295;-81
2021/12/27 08:03:10;;;;;;;29.20;18.97;;;;;;;4.68;46.10;99466.16;4287411;33;20292;-81
2021/12/27 08:05:37;;;;;;;28.87;18.52;;;;;;;4.56;45.67;99467.50;4287775;33;20296;-81
2021/12/27 08:08:04;;;;;;;26.12;18.67;;;;;;;4.15;48.50;99468.63;4266351;33;20225;-79
2021/12/27 08:10:31;;;;;;;27.33;17.50;;;;;;;4.23;46.79;99467.19;4291665;33;20176;-81
2021/12/27 08:12:58;;;;;;;30.55;18.85;;;;;;;4.54;45.57;99464.00;4281935;33;20314;-80
2021/12/27 08:15:25;;;;;;;32.90;22.35;;;;;;;4.30;45.49;99458.91;4284611;33;20304;-80
2021/12/27 08:17:52;;;;;;;29.92;19.95;;;;;;;4.48;45.02;99457.81;4260655;33;20293;-79
2021/12/27 08:20:19;;;;;;;30.20;21.17;;;;;;;4.77;44.68;99461.34;3975904;33;10000808;-80
2021/12/27 08:22:46;;;;;;;58.85;35.05;;;;;;;4.37;45.74;99459.97;4263749;33;20183;-80
2021/12/27 08:25:13;;;;;;;73.43;47.90;;;;;;;4.91;44.52;99449.81;4283563;33;21485;-81
2021/12/27 08:27:41;;;;;;;53.15;36.28;;;;;;;4.29;45.95;99456.31;4279213;33;20354;-81
2021/12/27 08:30:09;;;;;;;47.83;33.03;;;;;;;4.59;46.13;99452.19;4273529;33;20287;-82
2021/12/27 08:32:38;;;;;;;25.40;18.80;;;;;;;4.43;45.59;99455.06;4289178;33;20331;-81
2021/12/27 08:35:06;;;;;;;24.12;18.37;;;;;;;4.72;43.19;99457.75;4282692;33;20212;-82
2021/12/27 08:37:33;;;;;;;35.22;23.33;;;;;;;4.64;40.92;99462.63;4283877;33;20260;-82
2021/12/27 08:40:00;;;;;;;41.37;27.77;;;;;;;4.75;41.76;99468.09;4274524;33;20343;-82
2021/12/27 08:42:28;;;;;;;39.30;26.12;;;;;;;4.72;41.52;99468.00;4280734;33;20354;-83
2021/12/27 08:44:55;;;;;;;48.70;31.33;;;;;;;4.73;40.79;99474.87;4285262;33;20291;-82
2021/12/27 08:47:23;;;;;;;43.63;30.80;;;;;;;4.70;41.21;99467.09;4277308;33;21123;-81
2021/12/27 08:49:50;;;;;;;41.20;27.10;;;;;;;5.06;40.60;99475.97;4258767;33;787331;-83
2021/12/27 08:52:31;;;;;;;40.53;26.85;;;;;;;5.10;41.70;99476.94;4283023;33;21100;-82
2021/12/27 08:55:01;;;;;;;30.88;22.48;;;;;;;4.91;41.51;99490.84;4287574;33;20314;-80
2021/12/27 08:57:30;;;;;;;33.88;22.90;;;;;;;4.63;40.94;99479.69;4285411;33;20234;-81
2021/12/27 08:59:57;;;;;;;32.20;22.20;;;;;;;4.89;40.94;99482.25;4272610;33;20628;-82
2021/12/27 09:02:24;;;;;;;30.67;18.05;;;;;;;4.73;41.73;99477.44;4277003;33;20662;-81
2021/12/27 09:04:51;;;;;;;22.62;15.75;;;;;;;4.93;40.93;99473.84;4285357;33;20297;-82
2021/12/27 09:07:18;;;;;;;30.50;18.70;;;;;;;4.95;39.63;99467.06;4277505;33;20161;-81
2021/12/27 09:09:46;;;;;;;30.10;19.58;;;;;;;4.96;40.34;99468.81;4282998;33;20216;-82
2021/12/27 09:12:14;;;;;;;29.50;19.87;;;;;;;5.04;41.57;99464.81;4298017;33;20341;-82
2021/12/27 09:14:41;;;;;;;33.45;20.98;;;;;;;5.05;40.88;99471.69;4261233;33;20291;-83
2021/12/27 09:17:08;;;;;;;32.67;21.60;;;;;;;5.15;40.90;99470.28;4258961;33;20729;-82
2021/12/27 09:19:35;;;;;;;40.45;22.75;;;;;;;5.09;40.70;99470.94;4273172;33;20342;-79
2021/12/27 09:22:03;;;;;;;41.63;22.10;;;;;;;5.22;40.85;99471.34;4275709;33;20311;-79
2021/12/27 09:24:31;;;;;;;35.57;21.53;;;;;;;5.46;40.69;99463.53;4287608;33;20738;-81
2021/12/27 09:26:58;;;;;;;40.55;25.20;;;;;;;5.42;39.78;99465.09;4279602;33;20312;-81
2021/12/27 09:29:26;;;;;;;36.42;20.92;;;;;;;5.25;40.08;99458.59;4287081;33;20970;-81
2021/12/27 09:31:53;;;;;;;29.95;18.02;;;;;;;5.06;40.97;99459.72;4293957;33;20287;-81
2021/12/27 09:34:20;;;;;;;23.08;15.82;;;;;;;5.17;39.82;99457.47;4285251;33;20303;-81
2021/12/27 09:36:50;;;;;;;19.20;12.07;;;;;;;5.18;38.25;99448.97;4287178;33;20342;-82
2021/12/27 09:39:17;;;;;;;22.15;12.57;;;;;;;5.19;37.12;99453.28;4284409;33;20307;-81
2021/12/27 09:41:44;;;;;;;23.40;13.68;;;;;;;5.54;35.77;99439.81;4266945;33;21239;-82
2021/12/27 09:44:12;;;;;;;15.15;10.68;;;;;;;5.31;36.30;99443.41;4272723;33;20289;-82
2021/12/27 09:46:39;;;;;;;14.98;10.13;;;;;;;5.54;33.94;99434.69;4288946;33;20348;-82
2021/12/27 09:49:09;;;;;;;13.30;10.13;;;;;;;5.91;32.83;99440.88;4262822;33;20360;-82
2021/12/27 09:51:37;;;;;;;16.92;10.85;;;;;;;5.65;32.59;99432.44;4266285;33;20669;-82
2021/12/27 09:54:05;;;;;;;18.23;11.27;;;;;;;5.59;33.07;99433.12;4273572;33;20350;-82
2021/12/27 09:56:32;;;;;;;17.50;11.73;;;;;;;5.60;33.56;99432.28;4261085;33;20288;-81
2021/12/27 09:59:00;;;;;;;18.12;11.82;;;;;;;5.62;33.60;99426.34;4246074;33;20356;-81
2021/12/27 10:01:27;;;;;;;18.45;11.52;;;;;;;5.55;34.14;99431.31;4260098;33;20351;-81
2021/12/27 10:03:57;;;;;;;15.73;10.83;;;;;;;5.64;33.66;99429.81;4259710;33;20289;-83
2021/12/27 10:06:25;;;;;;;15.17;10.63;;;;;;;5.66;33.54;99428.19;4262032;33;20292;-82
2021/12/27 10:08:55;;;;;;;17.80;11.40;;;;;;;5.78;32.90;99428.53;4265731;33;20288;-81
2021/12/27 10:11:25;;;;;;;20.03;11.73;;;;;;;5.76;33.80;99430.19;4266378;33;20345;-81
2021/12/27 10:13:57;;;;;;;17.10;11.70;;;;;;;5.64;33.25;99429.81;4278136;33;20280;-81
2021/12/27 10:16:25;;;;;;;17.58;12.02;;;;;;;5.73;33.87;99424.94;4265647;33;20305;-81
2021/12/27 10:18:54;;;;;;;18.07;12.30;;;;;;;5.74;32.75;99431.81;4256704;33;20311;-81
2021/12/27 10:21:21;;;;;;;16.67;12.20;;;;;;;6.09;34.69;99434.53;4258320;33;20311;-81
2021/12/27 10:23:49;;;;;;;23.50;16.08;;;;;;;6.03;32.82;99420.72;4265057;33;21049;-82
2021/12/27 10:26:17;;;;;;;18.07;12.13;;;;;;;5.90;33.85;99418.56;4245616;33;20299;-81
2021/12/27 10:28:46;;;;;;;19.37;14.40;;;;;;;6.05;33.57;99413.91;4245500;33;20306;-82
2021/12/27 10:31:17;;;;;;;19.67;14.75;;;;;;;5.90;32.94;99413.44;4244570;33;20308;-82
2021/12/27 10:33:49;;;;;;;19.60;14.10;;;;;;;6.09;33.46;99419.13;4264406;33;20289;-82
2021/12/27 10:36:17;;;;;;;21.02;14.80;;;;;;;5.93;35.56;99416.13;4249769;33;20381;-82
2021/12/27 10:38:53;;;;;;;29.85;23.60;;;;;;;6.16;34.88;99426.16;4238426;33;20305;-83
2021/12/27 10:41:25;;;;;;;22.87;16.87;;;;;;;6.08;36.10;99422.53;4240081;33;20296;-85
2021/12/27 10:43:56;;;;;;;20.08;14.50;;;;;;;6.10;35.63;99426.03;4249666;33;20338;-83
2021/12/27 10:46:42;;;;;;;15.93;12.27;;;;;;;6.11;34.93;99420.03;4252995;33;21219;-84
2021/12/27 10:49:10;;;;;;;20.05;14.77;;;;;;;6.19;32.65;99421.09;4248650;33;20981;-83
2021/12/27 10:51:37;;;;;;;17.45;13.18;;;;;;;6.12;34.79;99420.06;4250981;33;20321;-83
2021/12/27 10:54:12;;;;;;;20.58;15.32;;;;;;;6.28;34.38;99413.63;4244894;33;20299;-83
2021/12/27 10:56:50;;;;;;;;;;;;;;;6.14;34.11;99422.69;4258710;33;20361;-83
2021/12/27 10:59:18;;;;;;;;;;;;;;;6.59;33.57;99411.88;4258276;33;20057;-83
2021/12/27 11:01:48;;;;;;;;;;;;;;;6.86;34.24;99417.69;4253593;33;19993;-81
2021/12/27 11:04:18;;;;;;;;;;;;;;;6.98;32.72;99405.09;4251776;33;20011;-83
2021/12/27 11:06:46;;;;;;;;;;;;;;;7.23;31.64;99400.53;4248094;33;19989;-81
2021/12/27 11:09:16;;;;;;;;;;;;;;;7.41;32.67;99403.50;4253891;33;19980;-82
2021/12/27 11:11:46;;;;;;;;;;;;;;;7.59;31.99;99391.84;4258470;33;19981;-81
2021/12/27 11:14:13;;;;;;;;;;;;;;;7.45;32.69;99399.28;4252061;33;20507;-82
2021/12/27 11:16:41;;;;;;;;;;;;;;;7.29;33.22;99405.81;4261036;33;20081;-81
2021/12/27 11:19:08;;;;;;;;;;;;;;;7.55;30.87;99405.50;4257632;33;19981;-82
2021/12/27 11:21:36;;;;;;;;;;;;;;;7.51;31.74;99403.72;4251820;33;20062;-86
2021/12/27 11:24:03;;;;;;;;;;;;;;;7.52;32.08;99401.16;4246542;33;20475;-86
2021/12/27 11:26:32;;;;;;;;;;;;;;;7.41;32.71;99393.19;4234224;33;19996;-85
2021/12/27 11:29:12;;;;;;;;;;;;;;;7.30;32.37;99388.66;4247618;33;19988;-90
2021/12/27 11:31:42;;;;;;;;;;;;;;;7.53;31.23;99387.47;4240204;33;19988;-89
2021/12/27 11:34:12;;;;;;;;;;;;;;;7.30;30.41;99386.94;4247931;33;19992;-88
2021/12/27 11:36:42;;;;;;;;;;;;;;;7.37;30.78;99391.41;4234809;33;19989;-88
2021/12/27 11:39:27;;;;;;;;;;;;;;;7.46;32.24;99386.44;4241347;33;20089;-89
2021/12/27 11:41:57;;;;;;;;;;;;;;;7.43;32.15;99385.50;4256556;33;19988;-91
2021/12/27 11:44:45;;;;;;;;;;;;;;;7.36;32.33;99384.50;4282556;33;20029;-91
2021/12/27 11:47:12;;;;;;;;;;;;;;;7.22;32.62;99381.63;4274215;33;19984;-93